createdAt,value
2022-08-17T00:00:08.114Z,3.5
2022-08-17T00:01:07.727Z,3.599
2022-08-17T00:02:22.445Z,3.400
2022-08-17T00:03:07.220Z,3.5
2022-08-17T00:04:11.789Z,3.599
2022-08-17T00:05:07.161Z,3.700
2022-08-17T00:06:06.832Z,3.5
2022-08-17T00:08:06.753Z,3.799
2022-08-17T00:09:07.544Z,3.599
2022-08-17T00:10:07.034Z,3.400
2022-08-17T00:12:42.807Z,3.700
2022-08-17T00:13:07.173Z,3.5
2022-08-17T00:14:07.009Z,3.700
2022-08-17T00:15:08.342Z,3.299
2022-08-17T00:16:06.925Z,3.599
2022-08-17T00:17:06.952Z,3.299
2022-08-17T00:19:08.664Z,3.700
2022-08-17T00:20:07.315Z,3.900
2022-08-17T00:21:10.490Z,3.5
2022-08-17T00:22:34.159Z,3.400
2022-08-17T00:23:07.240Z,3.5
2022-08-17T00:24:07.417Z,3.599
2022-08-17T00:26:07.050Z,3.700
2022-08-17T00:27:07.682Z,4
2022-08-17T00:28:07.148Z,3.599
2022-08-17T00:29:07.372Z,3.5
2022-08-17T00:31:07.213Z,3.799
2022-08-17T00:33:12.651Z,3.700
2022-08-17T00:33:15.572Z,3.799
2022-08-17T00:35:07.161Z,3.599
2022-08-17T00:36:07.610Z,3.700
2022-08-17T00:37:07.235Z,3.5
2022-08-17T00:38:07.385Z,3.400
2022-08-17T00:39:07.573Z,3.799
2022-08-17T00:40:07.698Z,3.700
2022-08-17T00:41:07.414Z,3.599
2022-08-17T00:42:07.455Z,3.700
2022-08-17T00:43:07.769Z,3.299
2022-08-17T00:44:07.518Z,3.599
2022-08-17T00:46:07.367Z,3.400
2022-08-17T00:47:07.320Z,3.799
2022-08-17T00:50:07.543Z,3.700
2022-08-17T00:52:10.845Z,3.900
2022-08-17T00:53:07.464Z,3.400
2022-08-17T00:54:07.401Z,3.599
2022-08-17T00:56:06.950Z,3.700
2022-08-17T00:57:07.091Z,3.799
2022-08-17T00:58:07.490Z,3.299
2022-08-17T00:59:07.377Z,3.799
2022-08-17T01:01:07.432Z,3.599
2022-08-17T01:02:07.046Z,4
2022-08-17T01:03:07.462Z,3.799
2022-08-17T01:04:07.659Z,3.599
2022-08-17T01:05:07.289Z,3.799
2022-08-17T01:06:07.310Z,3.700
2022-08-17T01:07:07.474Z,3.900
2022-08-17T01:08:07.725Z,3.700
2022-08-17T01:09:07.398Z,3.5
2022-08-17T01:10:07.597Z,3.799
2022-08-17T01:12:08.083Z,4
2022-08-17T01:13:07.415Z,3.700
2022-08-17T01:14:07.209Z,4
2022-08-17T01:15:08.189Z,3.5
2022-08-17T01:16:07.639Z,3.799
2022-08-17T01:17:07.137Z,4
2022-08-17T01:18:07.377Z,3.900
2022-08-17T01:19:07.093Z,3.299
2022-08-17T01:20:07.748Z,4.099
2022-08-17T01:21:07.728Z,3.700
2022-08-17T01:22:06.999Z,3.799
2022-08-17T01:23:07.418Z,3.700
2022-08-17T01:24:07.052Z,3.900
2022-08-17T01:27:10.365Z,3.599
2022-08-17T01:28:06.837Z,3.5
2022-08-17T01:29:06.892Z,3.700
2022-08-17T01:30:58.802Z,3.299
2022-08-17T01:31:08.753Z,3.599
2022-08-17T01:32:07.151Z,3.700
2022-08-17T01:33:07.452Z,3.400
2022-08-17T01:34:07.525Z,3.5
2022-08-17T01:35:07.145Z,3.599
2022-08-17T01:36:12.152Z,3.400
2022-08-17T01:37:07.183Z,3.299
2022-08-17T01:38:07.191Z,3.400
2022-08-17T01:39:07.317Z,3.5
2022-08-17T01:40:07.417Z,3.599
2022-08-17T01:41:07.403Z,3.5
2022-08-17T01:42:07.510Z,3.299
2022-08-17T01:44:07.163Z,3.099
2022-08-17T01:45:07.364Z,3.200
2022-08-17T01:47:06.838Z,3.799
2022-08-17T01:48:06.907Z,3.5
2022-08-17T01:49:07.157Z,3.099
2022-08-17T01:50:06.948Z,3.5
2022-08-17T01:51:06.997Z,3.200
2022-08-17T01:53:07.069Z,3.400
2022-08-17T01:54:07.065Z,3.200
2022-08-17T01:55:07.001Z,4.099
2022-08-17T01:56:07.586Z,3.200
2022-08-17T01:58:07.214Z,3.400
2022-08-17T01:59:06.806Z,3.599
2022-08-17T02:01:06.837Z,3.400
2022-08-17T02:02:07.014Z,3.599
2022-08-17T02:03:06.918Z,3.700
2022-08-17T02:05:07.283Z,3.900
2022-08-17T02:06:26.940Z,3.400
2022-08-17T02:07:07.092Z,3.5
2022-08-17T02:08:07.141Z,3.599
2022-08-17T02:09:07.098Z,3.400
2022-08-17T02:11:11.363Z,3.200
2022-08-17T02:12:47.444Z,3.5
2022-08-17T02:13:07.317Z,3.700
2022-08-17T02:14:07.368Z,3.400
2022-08-17T02:16:07.395Z,3.5
2022-08-17T02:17:07.559Z,3.299
2022-08-17T02:18:07.544Z,3.400
2022-08-17T02:19:07.117Z,4.300
2022-08-17T02:20:07.545Z,3.299
2022-08-17T02:21:07.377Z,3.599
2022-08-17T02:22:07.543Z,3.400
2022-08-17T02:23:06.933Z,3.5
2022-08-17T02:27:07.663Z,3.400
2022-08-17T02:28:07.097Z,3.5
2022-08-17T02:29:07.502Z,3.200
2022-08-17T02:30:59.851Z,3.5
2022-08-17T02:31:09.570Z,3.200
2022-08-17T02:32:07.243Z,3.299
2022-08-17T02:33:09.232Z,3.599
2022-08-17T02:34:07.122Z,3.400
2022-08-17T02:35:07.752Z,3.599
2022-08-17T02:36:06.897Z,3.400
2022-08-17T02:37:07.355Z,3.5
2022-08-17T02:38:07.463Z,3.400
2022-08-17T02:39:07.629Z,3.700
2022-08-17T02:40:07.140Z,3.5
2022-08-17T02:43:07.609Z,3.400
2022-08-17T02:44:07.481Z,3.299
2022-08-17T02:45:07.238Z,3.5
2022-08-17T02:46:07.382Z,3.700
2022-08-17T02:47:07.402Z,3.599
2022-08-17T02:48:07.590Z,3.700
2022-08-17T02:49:07.492Z,3.900
2022-08-17T02:50:07.660Z,3.799
2022-08-17T02:52:06.855Z,3.700
2022-08-17T02:53:08.021Z,3.799
2022-08-17T02:54:41.806Z,3.299
2022-08-17T02:55:07.366Z,3.5
2022-08-17T02:56:07.492Z,3.099
2022-08-17T02:57:07.388Z,3.299
2022-08-17T03:01:07.657Z,3.5
2022-08-17T03:02:07.088Z,3.700
2022-08-17T03:03:07.329Z,3.400
2022-08-17T03:04:07.486Z,3.5
2022-08-17T03:05:07.620Z,3.299
2022-08-17T03:06:07.204Z,3.200
2022-08-17T03:07:07.380Z,3.5
2022-08-17T03:08:06.953Z,3.599
2022-08-17T03:09:07.233Z,3.099
2022-08-17T03:11:07.035Z,3.200
2022-08-17T03:12:07.304Z,3.400
2022-08-17T03:13:07.315Z,3
2022-08-17T03:14:07.467Z,3.400
2022-08-17T03:15:07.760Z,3.299
2022-08-17T03:16:07.031Z,3.200
2022-08-17T03:17:07.148Z,3.299
2022-08-17T03:19:07.525Z,3.5
2022-08-17T03:20:07.716Z,3
2022-08-17T03:21:07.123Z,3.599
2022-08-17T03:22:35.712Z,3.299
2022-08-17T03:23:07.803Z,3.799
2022-08-17T03:24:08.941Z,3.400
2022-08-17T03:26:07.206Z,3.200
2022-08-17T03:27:07.582Z,4
2022-08-17T03:28:07.197Z,4.199
2022-08-17T03:29:07.474Z,3.5
2022-08-17T03:30:07.642Z,3.799
2022-08-17T03:31:08.028Z,3.5
2022-08-17T03:32:07.181Z,3.400
2022-08-17T03:33:07.391Z,3.799
2022-08-17T03:35:07.355Z,3.599
2022-08-17T03:36:07.496Z,3.700
2022-08-17T03:37:07.016Z,3.599
2022-08-17T03:38:07.227Z,3.700
2022-08-17T03:39:07.261Z,3.5
2022-08-17T03:40:07.383Z,3.200
2022-08-17T03:41:06.930Z,3.400
2022-08-17T03:43:07.392Z,3.5
2022-08-17T03:44:07.504Z,3.200
2022-08-17T03:45:07.834Z,3.700
2022-08-17T03:46:27.340Z,3.400
2022-08-17T03:47:07.816Z,3.099
2022-08-17T03:48:07.122Z,3.299
2022-08-17T03:49:07.157Z,3.200
2022-08-17T03:50:10.355Z,3.700
2022-08-17T03:51:11.421Z,3.599
2022-08-17T03:52:07.464Z,3.299
2022-08-17T03:53:06.900Z,3.599
2022-08-17T03:55:07.163Z,3.299
2022-08-17T03:56:07.313Z,3.400
2022-08-17T03:57:07.400Z,2.900
2022-08-17T03:58:07.368Z,3.099
2022-08-17T04:00:08.328Z,3.400
2022-08-17T04:01:07.653Z,3.5
2022-08-17T04:02:06.880Z,3.099
2022-08-17T04:03:07.138Z,3.299
2022-08-17T04:04:07.195Z,3.400
2022-08-17T04:05:07.177Z,3.200
2022-08-17T04:06:06.802Z,3.400
2022-08-17T04:08:07.257Z,3.099
2022-08-17T04:10:07.243Z,3.400
2022-08-17T04:11:07.247Z,3.299
2022-08-17T04:12:07.552Z,3.5
2022-08-17T04:13:07.024Z,3.200
2022-08-17T04:14:07.632Z,3.299
2022-08-17T04:15:07.924Z,3.200
2022-08-17T04:16:07.570Z,3.099
2022-08-17T04:17:07.074Z,3.299
2022-08-17T04:19:07.312Z,3.099
2022-08-17T04:20:07.506Z,3.400
2022-08-17T04:21:07.724Z,2.900
2022-08-17T04:22:07.517Z,3.599
2022-08-17T04:23:07.587Z,3.200
2022-08-17T04:24:07.973Z,3.5
2022-08-17T04:25:07.640Z,3.299
2022-08-17T04:29:06.947Z,3.099
2022-08-17T04:30:07.716Z,3.299
2022-08-17T04:31:07.195Z,3.099
2022-08-17T04:32:07.362Z,3.200
2022-08-17T04:34:07.275Z,3.400
2022-08-17T04:35:07.896Z,3.5
2022-08-17T04:37:07.305Z,3.599
2022-08-17T04:38:07.993Z,3.400
2022-08-17T04:39:07.450Z,3.5
2022-08-17T04:40:07.616Z,3.400
2022-08-17T04:41:07.362Z,3.5
2022-08-17T04:42:07.359Z,4.300
2022-08-17T04:43:07.848Z,3.400
2022-08-17T04:44:07.480Z,3.299
2022-08-17T04:45:07.518Z,3.400
2022-08-17T04:46:07.544Z,3.5
2022-08-17T04:47:07.241Z,3.599
2022-08-17T04:48:07.459Z,3.299
2022-08-17T04:49:08.073Z,3.5
2022-08-17T04:50:07.632Z,3.400
2022-08-17T04:51:06.956Z,3.099
2022-08-17T04:52:07.615Z,3.599
2022-08-17T04:53:07.756Z,3.700
2022-08-17T04:54:07.351Z,3.400
2022-08-17T04:55:07.656Z,3.599
2022-08-17T04:58:07.429Z,3.299
2022-08-17T04:59:07.813Z,3.900
2022-08-17T05:01:07.616Z,3.5
2022-08-17T05:04:33.137Z,3.299
2022-08-17T05:05:07.768Z,3.400
2022-08-17T05:06:07.669Z,3.299
2022-08-17T05:07:07.795Z,3.599
2022-08-17T05:08:07.060Z,3.400
2022-08-17T05:09:07.875Z,3.299
2022-08-17T05:10:07.476Z,3.400
2022-08-17T05:11:07.165Z,3.299
2022-08-17T05:12:07.534Z,3.400
2022-08-17T05:14:07.066Z,3.700
2022-08-17T05:15:07.553Z,4
2022-08-17T05:16:07.019Z,3.5
2022-08-17T05:17:11.181Z,3.700
2022-08-17T05:18:07.387Z,3.200
2022-08-17T05:19:07.520Z,3.599
2022-08-17T05:20:07.042Z,3.400
2022-08-17T05:21:07.740Z,3.599
2022-08-17T05:22:07.353Z,3.5
2022-08-17T05:23:07.424Z,4.300
2022-08-17T05:24:12.847Z,3.400
2022-08-17T05:25:07.006Z,4
2022-08-17T05:26:07.895Z,3.900
2022-08-17T05:27:06.988Z,3.5
2022-08-17T05:28:07.814Z,3.400
2022-08-17T05:29:07.715Z,3.700
2022-08-17T05:30:07.310Z,3.5
2022-08-17T05:31:07.757Z,4
2022-08-17T05:32:38.088Z,4.199
2022-08-17T05:33:07.587Z,3.200
2022-08-17T05:34:07.524Z,3.900
2022-08-17T05:35:07.828Z,3.599
2022-08-17T05:36:07.322Z,3.400
2022-08-17T05:37:07.364Z,3.799
2022-08-17T05:38:07.397Z,3.200
2022-08-17T05:39:07.816Z,3.299
2022-08-17T05:40:07.284Z,3.5
2022-08-17T05:42:07.804Z,3.400
2022-08-17T05:44:07.419Z,3.299
2022-08-17T05:46:06.890Z,3.700
2022-08-17T05:47:07.208Z,3.799
2022-08-17T05:48:07.489Z,3.5
2022-08-17T05:49:07.554Z,3.700
2022-08-17T05:51:07.257Z,3.400
2022-08-17T05:52:07.415Z,3.700
2022-08-17T05:53:07.755Z,3.400
2022-08-17T05:54:07.013Z,3.5
2022-08-17T05:55:08.087Z,3.299
2022-08-17T05:56:10.885Z,4.099
2022-08-17T05:57:07.770Z,4
2022-08-17T05:58:07.073Z,3.299
2022-08-17T05:59:07.386Z,3.799
2022-08-17T06:00:08.439Z,3.599
2022-08-17T06:02:07.894Z,3.900
2022-08-17T06:03:07.774Z,4
2022-08-17T06:04:07.203Z,3.200
2022-08-17T06:05:08.035Z,3.5
2022-08-17T06:08:07.921Z,4.800
2022-08-17T06:09:07.570Z,3.5
2022-08-17T06:11:07.902Z,3.299
2022-08-17T06:12:08.281Z,3.400
2022-08-17T06:13:07.223Z,3.599
2022-08-17T06:14:07.577Z,3.5
2022-08-17T06:15:08.238Z,3.599
2022-08-17T06:17:07.937Z,3.5
2022-08-17T06:18:07.683Z,4
2022-08-17T06:19:07.975Z,3.299
2022-08-17T06:20:07.525Z,3.799
2022-08-17T06:21:07.941Z,3.599
2022-08-17T06:22:07.690Z,3.900
2022-08-17T06:23:06.829Z,3.700
2022-08-17T06:24:06.867Z,4
2022-08-17T06:26:07.481Z,3.599
2022-08-17T06:28:07.690Z,3.400
2022-08-17T06:29:08.235Z,3.700
2022-08-17T06:30:08.084Z,4
2022-08-17T06:32:07.726Z,3.799
2022-08-17T06:33:07.672Z,4
2022-08-17T06:34:07.289Z,3.700
2022-08-17T06:35:08.406Z,3.5
2022-08-17T06:37:07.537Z,3.400
2022-08-17T06:38:07.372Z,3.700
2022-08-17T06:39:07.498Z,3.599
2022-08-17T06:40:07.391Z,4
2022-08-17T06:41:08.007Z,3.700
2022-08-17T06:42:07.613Z,3.799
2022-08-17T06:43:08.017Z,4.099
2022-08-17T06:44:07.853Z,4.300
2022-08-17T06:45:07.925Z,4
2022-08-17T06:47:07.616Z,4.199
2022-08-17T06:48:07.978Z,3.900
2022-08-17T06:49:07.882Z,4.199
2022-08-17T06:51:06.960Z,4.099
2022-08-17T06:52:07.392Z,3.700
2022-08-17T06:53:07.267Z,3.799
2022-08-17T06:54:07.488Z,3.900
2022-08-17T06:55:07.160Z,4.099
2022-08-17T06:56:07.165Z,4.5
2022-08-17T06:57:07.878Z,3.799
2022-08-17T06:58:16.461Z,4
2022-08-17T07:00:08.949Z,3.700
2022-08-17T07:01:07.387Z,4.300
2022-08-17T07:02:07.947Z,4.5
2022-08-17T07:03:08.187Z,4.300
2022-08-17T07:04:11.956Z,4.199
2022-08-17T07:06:07.517Z,4
2022-08-17T07:07:07.605Z,4.5
2022-08-17T07:08:07.106Z,4
2022-08-17T07:09:07.865Z,4.300
2022-08-17T07:10:07.333Z,3.799
2022-08-17T07:11:07.885Z,4.099
2022-08-17T07:12:07.404Z,4.400
2022-08-17T07:13:07.604Z,3.900
2022-08-17T07:14:07.835Z,4.300
2022-08-17T07:15:07.623Z,4
2022-08-17T07:16:07.245Z,4.300
2022-08-17T07:17:07.724Z,4.099
2022-08-17T07:18:07.363Z,4
2022-08-17T07:19:07.807Z,4.199
2022-08-17T07:20:07.673Z,4.099
2022-08-17T07:21:07.722Z,4
2022-08-17T07:22:07.086Z,4.300
2022-08-17T07:23:07.385Z,4.199
2022-08-17T07:24:08.100Z,4.599
2022-08-17T07:25:07.546Z,4.400
2022-08-17T07:26:06.993Z,4.300
2022-08-17T07:27:07.362Z,4.099
2022-08-17T07:28:07.932Z,4.300
2022-08-17T07:29:07.841Z,4.199
2022-08-17T07:33:07.370Z,4.400
2022-08-17T07:34:07.253Z,4.099
2022-08-17T07:35:07.027Z,4.599
2022-08-17T07:36:07.742Z,5
2022-08-17T07:37:07.178Z,4.800
2022-08-17T07:38:07.274Z,4.599
2022-08-17T07:39:07.312Z,5
2022-08-17T07:40:16.338Z,4.5
2022-08-17T07:41:07.224Z,4.400
2022-08-17T07:42:07.816Z,5
2022-08-17T07:43:07.654Z,4.900
2022-08-17T07:44:07.412Z,4.599
2022-08-17T07:45:08.483Z,4.699
2022-08-17T07:46:06.969Z,4.900
2022-08-17T07:47:07.936Z,5
2022-08-17T07:48:07.757Z,4.699
2022-08-17T07:49:08.220Z,4.900
2022-08-17T07:51:07.254Z,5.5
2022-08-17T07:52:47.683Z,4.800
2022-08-17T07:53:07.803Z,5.099
2022-08-17T07:55:07.258Z,4.699
2022-08-17T07:57:07.190Z,4.800
2022-08-17T07:58:08.014Z,5.099
2022-08-17T07:59:07.777Z,4.800
2022-08-17T08:00:13.487Z,5.099
2022-08-17T08:01:07.419Z,4.900
2022-08-17T08:02:07.833Z,5.400
2022-08-17T08:03:07.476Z,5.5
2022-08-17T08:04:07.190Z,5.199
2022-08-17T08:05:08.832Z,5.099
2022-08-17T08:06:08.105Z,4.900
2022-08-17T08:07:07.734Z,5.099
2022-08-17T08:08:07.487Z,5.300
2022-08-17T08:09:07.190Z,5.199
2022-08-17T08:10:07.738Z,5.300
2022-08-17T08:12:07.878Z,5.199
2022-08-17T08:14:07.836Z,5.300
2022-08-17T08:15:07.526Z,5.800
2022-08-17T08:16:07.206Z,5.400
2022-08-17T08:17:09.329Z,5.800
2022-08-17T08:18:07.551Z,5.900
2022-08-17T08:20:37.865Z,5.400
2022-08-17T08:21:07.412Z,5.699
2022-08-17T08:23:07.277Z,6.099
2022-08-17T08:24:08.371Z,5.800
2022-08-17T08:25:08.131Z,6.300
2022-08-17T08:26:07.348Z,6.599
2022-08-17T08:27:07.417Z,6
2022-08-17T08:28:07.230Z,6.599
2022-08-17T08:29:07.754Z,6.800
2022-08-17T08:30:08.654Z,5.5
2022-08-17T08:31:07.494Z,6.199
2022-08-17T08:32:08.297Z,5.900
2022-08-17T08:33:07.326Z,6.5
2022-08-17T08:34:07.943Z,6
2022-08-17T08:35:07.956Z,6.300
2022-08-17T08:36:07.599Z,6.199
2022-08-17T08:37:17.617Z,6
2022-08-17T08:38:07.953Z,6.300
2022-08-17T08:39:07.729Z,6.099
2022-08-17T08:40:07.512Z,6.5
2022-08-17T08:41:07.492Z,6.199
2022-08-17T08:42:07.584Z,6.099
2022-08-17T08:44:07.775Z,6.800
2022-08-17T08:45:08.153Z,6.599
2022-08-17T08:46:08.008Z,6.400
2022-08-17T08:47:07.532Z,6.800
2022-08-17T08:48:23.078Z,6.400
2022-08-17T08:50:07.467Z,6.300
2022-08-17T08:52:07.583Z,6.199
2022-08-17T08:53:07.287Z,6
2022-08-17T08:54:07.714Z,5.699
2022-08-17T08:55:07.614Z,6.400
2022-08-17T08:56:07.624Z,6
2022-08-17T08:57:26.695Z,6.099
2022-08-17T08:58:08.272Z,6
2022-08-17T08:59:07.042Z,6.599
2022-08-17T09:00:08.731Z,6.300
2022-08-17T09:01:07.150Z,6.400
2022-08-17T09:02:07.553Z,6.5
2022-08-17T09:03:07.314Z,6.400
2022-08-17T09:04:23.227Z,6.599
2022-08-17T09:05:15.831Z,6.5
2022-08-17T09:06:32.175Z,6.699
2022-08-17T09:07:07.039Z,6.400
2022-08-17T09:08:07.327Z,6.5
2022-08-17T09:09:07.405Z,6.400
2022-08-17T09:10:07.181Z,7.099
2022-08-17T09:11:07.745Z,6.900
2022-08-17T09:12:07.238Z,7
2022-08-17T09:13:10.132Z,7.199
2022-08-17T09:15:12.724Z,6.800
2022-08-17T09:16:07.266Z,7.199
2022-08-17T09:17:08.048Z,7.300
2022-08-17T09:19:00.840Z,7.199
2022-08-17T09:19:09.119Z,7.400
2022-08-17T09:20:07.724Z,7.5
2022-08-17T09:21:07.114Z,7.699
2022-08-17T09:22:07.402Z,7.099
2022-08-17T09:23:07.609Z,7.300
2022-08-17T09:25:07.630Z,7.400
2022-08-17T09:26:07.120Z,7.5
2022-08-17T09:27:07.516Z,7.400
2022-08-17T09:28:07.746Z,7.300
2022-08-17T09:29:07.220Z,7.400
2022-08-17T09:30:08.046Z,8.100
2022-08-17T09:31:07.342Z,7.400
2022-08-17T09:32:07.305Z,7.599
2022-08-17T09:34:07.600Z,7.699
2022-08-17T09:35:07.181Z,7.5
2022-08-17T09:36:07.838Z,7.900
2022-08-17T09:37:07.612Z,8.199
2022-08-17T09:38:07.338Z,7.699
2022-08-17T09:39:07.780Z,8.300
2022-08-17T09:40:07.592Z,7.800
2022-08-17T09:41:07.181Z,8.199
2022-08-17T09:42:07.546Z,7.800
2022-08-17T09:43:06.836Z,7.900
2022-08-17T09:44:12.103Z,8.199
2022-08-17T09:45:07.788Z,8.600
2022-08-17T09:46:07.174Z,8.199
2022-08-17T09:47:07.894Z,8.300
2022-08-17T09:48:07.579Z,8
2022-08-17T09:50:07.523Z,7.599
2022-08-17T09:51:07.305Z,7.5
2022-08-17T09:52:07.905Z,7.400
2022-08-17T09:53:07.456Z,8.300
2022-08-17T09:54:36.979Z,8.199
2022-08-17T09:55:07.205Z,7.900
2022-08-17T09:56:07.353Z,7.400
2022-08-17T09:57:28.617Z,7.699
2022-08-17T09:59:07.546Z,7.400
2022-08-17T10:00:08.538Z,7.300
2022-08-17T10:01:07.252Z,7.800
2022-08-17T10:02:07.815Z,7.199
2022-08-17T10:03:07.472Z,7.900
2022-08-17T10:04:07.977Z,7.699
2022-08-17T10:05:07.705Z,7.300
2022-08-17T10:07:07.593Z,7.400
2022-08-17T10:08:07.177Z,7.099
2022-08-17T10:10:13.574Z,7.300
2022-08-17T10:11:08.007Z,6.800
2022-08-17T10:12:07.483Z,7.199
2022-08-17T10:13:09.544Z,7.099
2022-08-17T10:15:09.530Z,7.900
2022-08-17T10:16:07.526Z,6.699
2022-08-17T10:17:08.137Z,6.199
2022-08-17T10:18:07.659Z,7.199
2022-08-17T10:19:07.169Z,6.699
2022-08-17T10:20:07.818Z,7.099
2022-08-17T10:21:07.542Z,6.900
2022-08-17T10:23:07.689Z,7
2022-08-17T10:24:07.235Z,6.5
2022-08-17T10:25:23.768Z,6.099
2022-08-17T10:26:07.654Z,7.099
2022-08-17T10:27:07.385Z,6.400
2022-08-17T10:28:07.429Z,7.599
2022-08-17T10:29:07.517Z,6.800
2022-08-17T10:30:07.424Z,6.5
2022-08-17T10:32:07.301Z,6.699
2022-08-17T10:33:07.800Z,6.900
2022-08-17T10:34:07.483Z,6.400
2022-08-17T10:35:07.188Z,7.199
2022-08-17T10:36:10.783Z,6.5
2022-08-17T10:37:07.742Z,6.599
2022-08-17T10:38:07.521Z,6.5
2022-08-17T10:39:07.344Z,7
2022-08-17T10:41:07.375Z,6.699
2022-08-17T10:42:07.836Z,6.5
2022-08-17T10:43:07.339Z,7.099
2022-08-17T10:44:40.784Z,6.599
2022-08-17T10:45:07.777Z,7
2022-08-17T10:46:27.679Z,6.199
2022-08-17T10:47:07.618Z,5.599
2022-08-17T10:48:07.794Z,5.199
2022-08-17T10:49:07.390Z,5.5
2022-08-17T10:51:07.322Z,5.199
2022-08-17T10:52:07.222Z,5.099
2022-08-17T10:53:08.040Z,4.900
2022-08-17T10:55:07.160Z,4.699
2022-08-17T10:56:07.045Z,4.800
2022-08-17T10:57:07.489Z,5.5
2022-08-17T10:58:07.282Z,5.800
2022-08-17T10:59:07.829Z,5.5
2022-08-17T11:00:07.968Z,6
2022-08-17T11:01:07.535Z,5.5
2022-08-17T11:02:07.474Z,6.199
2022-08-17T11:03:07.289Z,5.400
2022-08-17T11:04:07.044Z,5.699
2022-08-17T11:05:07.874Z,5.199
2022-08-17T11:06:07.546Z,5
2022-08-17T11:07:07.467Z,5.699
2022-08-17T11:08:08.092Z,5.199
2022-08-17T11:09:08.116Z,5.699
2022-08-17T11:10:07.886Z,5.300
2022-08-17T11:11:07.530Z,5.5
2022-08-17T11:12:07.263Z,5.099
2022-08-17T11:13:08.315Z,5
2022-08-17T11:14:07.871Z,5.300
2022-08-17T11:15:07.953Z,5
2022-08-17T11:16:12.666Z,4.599
2022-08-17T11:17:07.306Z,5
2022-08-17T11:18:08.027Z,4.599
2022-08-17T11:19:07.646Z,4.800
2022-08-17T11:20:07.771Z,5.400
2022-08-17T11:22:07.498Z,5.099
2022-08-17T11:23:07.909Z,5.300
2022-08-17T11:24:07.627Z,5.099
2022-08-17T11:25:07.210Z,5.400
2022-08-17T11:26:07.859Z,5.5
2022-08-17T11:27:07.660Z,5.199
2022-08-17T11:28:07.737Z,5.099
2022-08-17T11:29:07.712Z,5
2022-08-17T11:30:08.972Z,5.300
2022-08-17T11:31:08.399Z,5.599
2022-08-17T11:32:07.773Z,5.800
2022-08-17T11:33:07.336Z,5.5
2022-08-17T11:34:07.575Z,5.900
2022-08-17T11:35:07.200Z,6
2022-08-17T11:36:21.598Z,6.199
2022-08-17T11:37:07.347Z,6.5
2022-08-17T11:38:09.698Z,6.400
2022-08-17T11:39:07.794Z,6.5
2022-08-17T11:41:07.395Z,6.300
2022-08-17T11:42:08.243Z,6.5
2022-08-17T11:44:07.767Z,6.099
2022-08-17T11:45:08.231Z,6.199
2022-08-17T11:46:07.708Z,6.5
2022-08-17T11:47:07.495Z,6.900
2022-08-17T11:48:27.256Z,6.099
2022-08-17T11:49:07.892Z,6.5
2022-08-17T11:50:07.976Z,6.400
2022-08-17T11:51:07.839Z,6.199
2022-08-17T11:52:07.772Z,6.800
2022-08-17T11:53:07.401Z,6.400
2022-08-17T11:54:31.874Z,6.300
2022-08-17T11:56:07.866Z,6.800
2022-08-17T11:57:07.900Z,6.699
2022-08-17T11:58:07.109Z,7.099
2022-08-17T11:59:07.461Z,7
2022-08-17T12:01:07.718Z,6.800
2022-08-17T12:02:07.283Z,7.099
2022-08-17T12:03:07.985Z,6.199
2022-08-17T12:04:07.737Z,7.099
2022-08-17T12:05:09.713Z,6.900
2022-08-17T12:06:30.287Z,7.5
2022-08-17T12:07:07.429Z,7.099
2022-08-17T12:08:08.139Z,6.900
2022-08-17T12:09:08.209Z,7.199
2022-08-17T12:10:07.891Z,6.599
2022-08-17T12:11:07.379Z,7.199
2022-08-17T12:12:13.000Z,6.5
2022-08-17T12:13:07.550Z,7.300
2022-08-17T12:14:07.339Z,6.599
2022-08-17T12:15:10.961Z,7.199
2022-08-17T12:16:07.931Z,7.800
2022-08-17T12:17:07.801Z,7.5
2022-08-17T12:18:07.931Z,8.399
2022-08-17T12:19:07.413Z,7.300
2022-08-17T12:20:08.111Z,7.699
2022-08-17T12:21:07.742Z,7.400
2022-08-17T12:22:07.293Z,7.5
2022-08-17T12:23:08.269Z,6.800
2022-08-17T12:24:07.178Z,8
2022-08-17T12:25:08.297Z,7.699
2022-08-17T12:27:07.256Z,7.5
2022-08-17T12:28:07.882Z,7.599
2022-08-17T12:29:09.393Z,8
2022-08-17T12:30:07.687Z,7.900
2022-08-17T12:31:07.385Z,8
2022-08-17T12:32:07.808Z,8.100
2022-08-17T12:33:07.183Z,8
2022-08-17T12:34:07.909Z,8.899
2022-08-17T12:35:07.234Z,8.699
2022-08-17T12:37:07.597Z,8.199
2022-08-17T12:38:07.092Z,7.599
2022-08-17T12:39:14.582Z,8.300
2022-08-17T12:42:07.611Z,7.400
2022-08-17T12:43:07.929Z,7.699
2022-08-17T12:44:07.717Z,8.5
2022-08-17T12:45:07.533Z,8.399
2022-08-17T12:46:13.127Z,7.800
2022-08-17T12:47:07.925Z,7.900
2022-08-17T12:48:07.503Z,8.100
2022-08-17T12:49:07.612Z,8.300
2022-08-17T12:50:07.602Z,8.5
2022-08-17T12:51:08.000Z,8.600
2022-08-17T12:52:07.869Z,8.5
2022-08-17T12:53:07.406Z,9
2022-08-17T12:54:07.248Z,8.600
2022-08-17T12:55:07.797Z,8.399
2022-08-17T12:56:07.725Z,9.199
2022-08-17T12:57:07.645Z,8.5
2022-08-17T12:58:13.610Z,8.699
2022-08-17T12:59:08.020Z,8.300
2022-08-17T13:00:08.220Z,8.600
2022-08-17T13:01:07.901Z,8.100
2022-08-17T13:02:07.890Z,8.199
2022-08-17T13:03:07.682Z,8.100
2022-08-17T13:04:08.102Z,8.399
2022-08-17T13:05:07.843Z,8.5
2022-08-17T13:06:07.573Z,8.800
2022-08-17T13:07:07.103Z,8.199
2022-08-17T13:08:07.801Z,8.100
2022-08-17T13:09:07.825Z,8.199
2022-08-17T13:10:07.325Z,9.199
2022-08-17T13:11:08.088Z,8.100
2022-08-17T13:12:07.992Z,8.5
2022-08-17T13:13:08.004Z,8.800
2022-08-17T13:14:08.416Z,8.5
2022-08-17T13:15:08.042Z,8.399
2022-08-17T13:16:07.862Z,8.300
2022-08-17T13:17:12.834Z,8
2022-08-17T13:18:07.668Z,8.199
2022-08-17T13:19:07.614Z,8.100
2022-08-17T13:20:08.197Z,8.699
2022-08-17T13:21:08.538Z,7.900
2022-08-17T13:22:08.147Z,8.100
2022-08-17T13:23:12.342Z,8.399
2022-08-17T13:25:08.713Z,8.699
2022-08-17T13:26:08.004Z,8.199
2022-08-17T13:27:08.801Z,7.900
2022-08-17T13:28:07.873Z,8.300
2022-08-17T13:29:08.386Z,8.5
2022-08-17T13:30:07.916Z,8.300
2022-08-17T13:31:08.629Z,8.699
2022-08-17T13:32:08.526Z,8.5
2022-08-17T13:33:07.899Z,7.800
2022-08-17T13:34:08.498Z,8
2022-08-17T13:35:14.911Z,8.199
2022-08-17T13:37:08.058Z,7.800
2022-08-17T13:38:07.757Z,8.199
2022-08-17T13:39:08.289Z,7.800
2022-08-17T13:40:08.365Z,7.300
2022-08-17T13:41:08.553Z,8
2022-08-17T13:42:11.156Z,8.199
2022-08-17T13:43:07.903Z,7.800
2022-08-17T13:44:08.320Z,8.199
2022-08-17T13:45:32.182Z,8
2022-08-17T13:47:07.994Z,8.100
2022-08-17T13:48:08.160Z,8.300
2022-08-17T13:49:07.721Z,8.399
2022-08-17T13:50:07.870Z,8.199
2022-08-17T13:51:07.980Z,8.300
2022-08-17T13:52:08.447Z,8.199
2022-08-17T13:53:08.701Z,7.800
2022-08-17T13:54:07.726Z,8.199
2022-08-17T13:55:08.350Z,8.699
2022-08-17T13:56:37.407Z,7.800
2022-08-17T13:57:08.032Z,8.600
2022-08-17T13:58:08.422Z,8.300
2022-08-17T14:00:09.200Z,8.199
2022-08-17T14:02:08.650Z,8
2022-08-17T14:03:08.126Z,7.800
2022-08-17T14:04:07.433Z,7.199
2022-08-17T14:05:07.565Z,7.400
2022-08-17T14:06:08.242Z,8.199
2022-08-17T14:07:07.971Z,7.300
2022-08-17T14:08:08.870Z,7.400
2022-08-17T14:09:08.087Z,7.199
2022-08-17T14:11:08.758Z,7.699
2022-08-17T14:12:08.090Z,7.599
2022-08-17T14:13:08.452Z,7.099
2022-08-17T14:14:07.596Z,7.199
2022-08-17T14:16:07.750Z,6.900
2022-08-17T14:17:08.132Z,7.400
2022-08-17T14:18:07.639Z,7
2022-08-17T14:19:07.627Z,7.400
2022-08-17T14:20:07.837Z,7.099
2022-08-17T14:21:07.965Z,6.900
2022-08-17T14:22:08.263Z,7.300
2022-08-17T14:23:08.097Z,7.400
2022-08-17T14:24:08.141Z,7.5
2022-08-17T14:25:08.657Z,7.099
2022-08-17T14:26:07.730Z,7.199
2022-08-17T14:27:07.703Z,7.400
2022-08-17T14:29:12.661Z,7.699
2022-08-17T14:31:08.089Z,7.900
2022-08-17T14:32:08.247Z,7.300
2022-08-17T14:33:08.510Z,7.699
2022-08-17T14:34:07.668Z,7.599
2022-08-17T14:36:07.843Z,7.800
2022-08-17T14:37:08.323Z,8
2022-08-17T14:38:07.618Z,7.599
2022-08-17T14:39:07.966Z,7.900
2022-08-17T14:40:08.100Z,8
2022-08-17T14:41:08.151Z,7.300
2022-08-17T14:42:08.519Z,7.400
2022-08-17T14:43:07.744Z,7.900
2022-08-17T14:44:08.122Z,7.5
2022-08-17T14:45:32.003Z,7.400
2022-08-17T14:46:07.637Z,7.699
2022-08-17T14:47:07.316Z,8
2022-08-17T14:49:07.579Z,8.300
2022-08-17T14:50:08.791Z,7.599
2022-08-17T14:51:07.827Z,7.400
2022-08-17T14:52:07.722Z,7.300
2022-08-17T14:53:08.178Z,7.699
2022-08-17T14:55:07.892Z,7.599
2022-08-17T14:57:22.782Z,7.400
2022-08-17T14:58:07.612Z,6.800
2022-08-17T14:59:07.764Z,6.699
2022-08-17T15:00:08.866Z,7.099
2022-08-17T15:01:08.032Z,7.300
2022-08-17T15:02:07.763Z,6.800
2022-08-17T15:04:07.326Z,7.099
2022-08-17T15:05:07.544Z,7
2022-08-17T15:06:07.687Z,6.699